sensor_id;sensor_type;location;lat;lon;timestamp;pressure;altitude;pressure_sealevel;temperature
71428;BMP280;59246;59.102;37.928;2022-08-01T00:01:23;100323.94;;;16.52
71428;BMP280;59246;59.102;37.928;2022-08-01T00:03:49;100322.41;;;16.51
71428;BMP280;59246;59.102;37.928;2022-08-01T00:06:14;100329.16;;;16.49
71428;BMP280;59246;59.102;37.928;2022-08-01T00:08:40;100329.47;;;16.47
71428;BMP280;59246;59.102;37.928;2022-08-01T00:11:06;100328.19;;;16.45
71428;BMP280;59246;59.102;37.928;2022-08-01T00:13:31;100330.41;;;16.43
71428;BMP280;59246;59.102;37.928;2022-08-01T00:15:57;100334.50;;;16.40
71428;BMP280;59246;59.102;37.928;2022-08-01T00:18:23;100335.88;;;16.37
71428;BMP280;59246;59.102;37.928;2022-08-01T00:20:48;100334.63;;;16.35
71428;BMP280;59246;59.102;37.928;2022-08-01T00:23:14;100336.81;;;16.33
71428;BMP280;59246;59.102;37.928;2022-08-01T00:25:40;100344.34;;;16.31
71428;BMP280;59246;59.102;37.928;2022-08-01T00:28:06;100347.66;;;16.28
71428;BMP280;59246;59.102;37.928;2022-08-01T00:30:34;100336.78;;;16.24
71428;BMP280;59246;59.102;37.928;2022-08-01T00:33:01;100335.97;;;16.24
71428;BMP280;59246;59.102;37.928;2022-08-01T00:35:27;100334.56;;;16.26
71428;BMP280;59246;59.102;37.928;2022-08-01T00:37:53;100340.59;;;16.32
71428;BMP280;59246;59.102;37.928;2022-08-01T00:40:19;100339.19;;;16.34
71428;BMP280;59246;59.102;37.928;2022-08-01T00:42:44;100343.13;;;16.37
71428;BMP280;59246;59.102;37.928;2022-08-01T00:45:11;100334.00;;;16.38
71428;BMP280;59246;59.102;37.928;2022-08-01T00:47:37;100330.81;;;16.36
71428;BMP280;59246;59.102;37.928;2022-08-01T00:50:04;100338.41;;;16.34
71428;BMP280;59246;59.102;37.928;2022-08-01T00:52:31;100339.47;;;16.33
71428;BMP280;59246;59.102;37.928;2022-08-01T00:54:56;100337.09;;;16.31
71428;BMP280;59246;59.102;37.928;2022-08-01T00:57:22;100342.00;;;16.29
71428;BMP280;59246;59.102;37.928;2022-08-01T00:59:48;100339.63;;;16.28
71428;BMP280;59246;59.102;37.928;2022-08-01T01:02:14;100335.97;;;16.24
71428;BMP280;59246;59.102;37.928;2022-08-01T01:04:40;100347.00;;;16.22
71428;BMP280;59246;59.102;37.928;2022-08-01T01:07:12;100351.38;;;16.18
71428;BMP280;59246;59.102;37.928;2022-08-01T01:10:04;100348.53;;;16.14
71428;BMP280;59246;59.102;37.928;2022-08-01T01:12:54;100340.03;;;16.12
71428;BMP280;59246;59.102;37.928;2022-08-01T01:15:38;100333.09;;;16.11
71428;BMP280;59246;59.102;37.928;2022-08-01T01:18:25;100333.69;;;16.08
71428;BMP280;59246;59.102;37.928;2022-08-01T01:24:20;100334.16;;;16.10
71428;BMP280;59246;59.102;37.928;2022-08-01T01:26:57;100341.72;;;16.08
71428;BMP280;59246;59.102;37.928;2022-08-01T01:32:02;100337.50;;;16.16
71428;BMP280;59246;59.102;37.928;2022-08-01T01:34:32;100331.53;;;16.19
71428;BMP280;59246;59.102;37.928;2022-08-01T01:37:01;100340.03;;;16.21
71428;BMP280;59246;59.102;37.928;2022-08-01T01:39:28;100330.94;;;16.22
71428;BMP280;59246;59.102;37.928;2022-08-01T01:41:56;100332.19;;;16.25
71428;BMP280;59246;59.102;37.928;2022-08-01T01:44:23;100340.09;;;16.30
71428;BMP280;59246;59.102;37.928;2022-08-01T01:46:51;100334.63;;;16.35
71428;BMP280;59246;59.102;37.928;2022-08-01T01:49:20;100336.69;;;16.38
71428;BMP280;59246;59.102;37.928;2022-08-01T01:51:48;100346.75;;;16.41
71428;BMP280;59246;59.102;37.928;2022-08-01T01:54:15;100343.78;;;16.43
71428;BMP280;59246;59.102;37.928;2022-08-01T01:56:41;100338.13;;;16.44
71428;BMP280;59246;59.102;37.928;2022-08-01T01:59:21;100337.03;;;16.45
71428;BMP280;59246;59.102;37.928;2022-08-01T02:01:51;100330.25;;;16.48
71428;BMP280;59246;59.102;37.928;2022-08-01T02:04:20;100330.75;;;16.50
71428;BMP280;59246;59.102;37.928;2022-08-01T02:06:47;100331.19;;;16.52
71428;BMP280;59246;59.102;37.928;2022-08-01T02:09:20;100328.41;;;16.57
71428;BMP280;59246;59.102;37.928;2022-08-01T02:11:47;100321.63;;;16.59
71428;BMP280;59246;59.102;37.928;2022-08-01T02:14:15;100320.69;;;16.64
71428;BMP280;59246;59.102;37.928;2022-08-01T02:16:45;100323.72;;;16.71
71428;BMP280;59246;59.102;37.928;2022-08-01T02:19:12;100319.00;;;16.77
71428;BMP280;59246;59.102;37.928;2022-08-01T02:21:50;100322.78;;;16.85
71428;BMP280;59246;59.102;37.928;2022-08-01T02:24:24;100324.53;;;16.89
71428;BMP280;59246;59.102;37.928;2022-08-01T02:26:53;100332.44;;;16.94
71428;BMP280;59246;59.102;37.928;2022-08-01T02:29:36;100320.47;;;17.00
71428;BMP280;59246;59.102;37.928;2022-08-01T02:32:04;100331.19;;;17.09
71428;BMP280;59246;59.102;37.928;2022-08-01T02:34:32;100333.41;;;17.16
71428;BMP280;59246;59.102;37.928;2022-08-01T02:37:02;100341.00;;;17.23
71428;BMP280;59246;59.102;37.928;2022-08-01T02:39:29;100340.84;;;17.28
71428;BMP280;59246;59.102;37.928;2022-08-01T02:41:58;100345.25;;;17.32
71428;BMP280;59246;59.102;37.928;2022-08-01T02:44:31;100348.88;;;17.36
71428;BMP280;59246;59.102;37.928;2022-08-01T02:47:01;100349.84;;;17.40
71428;BMP280;59246;59.102;37.928;2022-08-01T02:49:45;100349.03;;;17.40
71428;BMP280;59246;59.102;37.928;2022-08-01T02:52:14;100354.09;;;17.41
71428;BMP280;59246;59.102;37.928;2022-08-01T02:54:43;100354.59;;;17.44
71428;BMP280;59246;59.102;37.928;2022-08-01T02:57:10;100352.84;;;17.48
71428;BMP280;59246;59.102;37.928;2022-08-01T02:59:38;100354.09;;;17.50
71428;BMP280;59246;59.102;37.928;2022-08-01T03:02:06;100350.31;;;17.51
71428;BMP280;59246;59.102;37.928;2022-08-01T03:04:35;100357.41;;;17.56
71428;BMP280;59246;59.102;37.928;2022-08-01T03:07:04;100353.47;;;17.62
71428;BMP280;59246;59.102;37.928;2022-08-01T03:09:32;100349.50;;;17.68
71428;BMP280;59246;59.102;37.928;2022-08-01T03:12:02;100349.38;;;17.73
71428;BMP280;59246;59.102;37.928;2022-08-01T03:14:29;100355.16;;;17.75
71428;BMP280;59246;59.102;37.928;2022-08-01T03:16:57;100353.91;;;17.81
71428;BMP280;59246;59.102;37.928;2022-08-01T03:19:24;100360.69;;;17.88
71428;BMP280;59246;59.102;37.928;2022-08-01T03:21:52;100361.31;;;17.93
71428;BMP280;59246;59.102;37.928;2022-08-01T03:24:19;100357.66;;;17.98
71428;BMP280;59246;59.102;37.928;2022-08-01T03:26:47;100352.00;;;17.99
71428;BMP280;59246;59.102;37.928;2022-08-01T03:29:17;100351.84;;;18.05
71428;BMP280;59246;59.102;37.928;2022-08-01T03:31:44;100350.09;;;18.09
71428;BMP280;59246;59.102;37.928;2022-08-01T03:34:11;100347.53;;;18.12
71428;BMP280;59246;59.102;37.928;2022-08-01T03:36:46;100345.59;;;18.21
71428;BMP280;59246;59.102;37.928;2022-08-01T03:39:14;100341.94;;;18.26
71428;BMP280;59246;59.102;37.928;2022-08-01T03:41:45;100351.56;;;18.36
71428;BMP280;59246;59.102;37.928;2022-08-01T03:44:17;100348.00;;;18.44
71428;BMP280;59246;59.102;37.928;2022-08-01T03:46:47;100347.53;;;18.51
71428;BMP280;59246;59.102;37.928;2022-08-01T03:49:38;100346.88;;;18.54
71428;BMP280;59246;59.102;37.928;2022-08-01T03:52:07;100347.03;;;18.57
71428;BMP280;59246;59.102;37.928;2022-08-01T03:54:36;100348.88;;;18.65
71428;BMP280;59246;59.102;37.928;2022-08-01T03:57:04;100352.63;;;18.73
71428;BMP280;59246;59.102;37.928;2022-08-01T03:59:31;100351.66;;;18.78
71428;BMP280;59246;59.102;37.928;2022-08-01T04:01:58;100358.91;;;18.86
71428;BMP280;59246;59.102;37.928;2022-08-01T04:04:24;100360.25;;;18.92
71428;BMP280;59246;59.102;37.928;2022-08-01T04:06:50;100355.00;;;18.96
71428;BMP280;59246;59.102;37.928;2022-08-01T04:09:19;100362.28;;;18.95
71428;BMP280;59246;59.102;37.928;2022-08-01T04:11:47;100357.25;;;18.94
71428;BMP280;59246;59.102;37.928;2022-08-01T04:14:13;100358.34;;;18.93
71428;BMP280;59246;59.102;37.928;2022-08-01T04:16:39;100355.59;;;19.01
71428;BMP280;59246;59.102;37.928;2022-08-01T04:19:05;100353.16;;;19.17
71428;BMP280;59246;59.102;37.928;2022-08-01T04:21:35;100354.03;;;19.42
71428;BMP280;59246;59.102;37.928;2022-08-01T04:24:13;100348.31;;;19.77
71428;BMP280;59246;59.102;37.928;2022-08-01T04:26:41;100344.91;;;20.26
71428;BMP280;59246;59.102;37.928;2022-08-01T04:29:09;100342.63;;;20.40
71428;BMP280;59246;59.102;37.928;2022-08-01T04:31:37;100351.63;;;20.32
71428;BMP280;59246;59.102;37.928;2022-08-01T04:34:05;100346.81;;;20.25
71428;BMP280;59246;59.102;37.928;2022-08-01T04:36:34;100355.81;;;20.17
71428;BMP280;59246;59.102;37.928;2022-08-01T04:39:02;100351.75;;;20.11
71428;BMP280;59246;59.102;37.928;2022-08-01T04:41:30;100352.16;;;20.13
71428;BMP280;59246;59.102;37.928;2022-08-01T04:43:57;100348.81;;;20.16
71428;BMP280;59246;59.102;37.928;2022-08-01T04:46:25;100371.97;;;20.17
71428;BMP280;59246;59.102;37.928;2022-08-01T04:48:52;100362.09;;;20.21
71428;BMP280;59246;59.102;37.928;2022-08-01T04:51:20;100369.69;;;20.19
71428;BMP280;59246;59.102;37.928;2022-08-01T04:53:48;100366.22;;;20.19
71428;BMP280;59246;59.102;37.928;2022-08-01T04:56:14;100369.69;;;20.19
71428;BMP280;59246;59.102;37.928;2022-08-01T04:58:41;100368.59;;;20.20
71428;BMP280;59246;59.102;37.928;2022-08-01T05:01:07;100364.78;;;20.21
71428;BMP280;59246;59.102;37.928;2022-08-01T05:03:33;100376.78;;;20.24
71428;BMP280;59246;59.102;37.928;2022-08-01T05:05:59;100375.78;;;20.28
71428;BMP280;59246;59.102;37.928;2022-08-01T05:08:25;100373.66;;;20.34
71428;BMP280;59246;59.102;37.928;2022-08-01T05:10:50;100369.59;;;20.40
71428;BMP280;59246;59.102;37.928;2022-08-01T05:13:16;100367.91;;;20.48
71428;BMP280;59246;59.102;37.928;2022-08-01T05:15:42;100364.97;;;20.53
71428;BMP280;59246;59.102;37.928;2022-08-01T05:18:08;100368.00;;;20.64
71428;BMP280;59246;59.102;37.928;2022-08-01T05:20:34;100364.31;;;20.68
71428;BMP280;59246;59.102;37.928;2022-08-01T05:23:00;100364.75;;;20.70
71428;BMP280;59246;59.102;37.928;2022-08-01T05:25:25;100368.72;;;20.73
71428;BMP280;59246;59.102;37.928;2022-08-01T05:27:51;100370.34;;;20.78
71428;BMP280;59246;59.102;37.928;2022-08-01T05:30:17;100372.81;;;20.83
71428;BMP280;59246;59.102;37.928;2022-08-01T05:32:43;100365.63;;;20.87
71428;BMP280;59246;59.102;37.928;2022-08-01T05:35:09;100361.47;;;20.89
71428;BMP280;59246;59.102;37.928;2022-08-01T05:37:35;100370.56;;;20.85
71428;BMP280;59246;59.102;37.928;2022-08-01T05:40:01;100357.41;;;20.83
71428;BMP280;59246;59.102;37.928;2022-08-01T05:42:27;100359.56;;;20.90
71428;BMP280;59246;59.102;37.928;2022-08-01T05:44:52;100362.78;;;20.96
71428;BMP280;59246;59.102;37.928;2022-08-01T05:47:18;100359.06;;;21.00
71428;BMP280;59246;59.102;37.928;2022-08-01T05:49:45;100356.56;;;21.07
71428;BMP280;59246;59.102;37.928;2022-08-01T05:52:11;100352.72;;;21.08
71428;BMP280;59246;59.102;37.928;2022-08-01T05:54:37;100359.25;;;21.07
71428;BMP280;59246;59.102;37.928;2022-08-01T05:57:03;100346.63;;;21.11
71428;BMP280;59246;59.102;37.928;2022-08-01T05:59:29;100348.09;;;21.21
71428;BMP280;59246;59.102;37.928;2022-08-01T06:01:55;100352.19;;;21.31
71428;BMP280;59246;59.102;37.928;2022-08-01T06:04:21;100345.50;;;21.41
71428;BMP280;59246;59.102;37.928;2022-08-01T06:06:47;100342.13;;;21.44
71428;BMP280;59246;59.102;37.928;2022-08-01T06:09:13;100345.38;;;21.49
71428;BMP280;59246;59.102;37.928;2022-08-01T06:11:39;100348.63;;;21.55
71428;BMP280;59246;59.102;37.928;2022-08-01T06:14:05;100342.94;;;21.60
71428;BMP280;59246;59.102;37.928;2022-08-01T06:16:30;100350.00;;;21.65
71428;BMP280;59246;59.102;37.928;2022-08-01T06:18:56;100345.91;;;21.71
71428;BMP280;59246;59.102;37.928;2022-08-01T06:21:22;100353.84;;;21.79
71428;BMP280;59246;59.102;37.928;2022-08-01T06:23:48;100352.56;;;21.89
71428;BMP280;59246;59.102;37.928;2022-08-01T06:26:17;100346.88;;;21.94
71428;BMP280;59246;59.102;37.928;2022-08-01T06:28:43;100351.22;;;21.99
71428;BMP280;59246;59.102;37.928;2022-08-01T06:31:09;100357.94;;;22.05
71428;BMP280;59246;59.102;37.928;2022-08-01T06:33:37;100347.66;;;22.11
71428;BMP280;59246;59.102;37.928;2022-08-01T06:36:03;100354.81;;;22.19
71428;BMP280;59246;59.102;37.928;2022-08-01T06:38:28;100354.38;;;22.17
71428;BMP280;59246;59.102;37.928;2022-08-01T06:40:54;100355.53;;;22.16
71428;BMP280;59246;59.102;37.928;2022-08-01T06:43:20;100355.69;;;22.23
71428;BMP280;59246;59.102;37.928;2022-08-01T06:45:46;100358.28;;;22.35
71428;BMP280;59246;59.102;37.928;2022-08-01T06:48:12;100357.97;;;22.56
71428;BMP280;59246;59.102;37.928;2022-08-01T06:50:38;100360.25;;;22.74
71428;BMP280;59246;59.102;37.928;2022-08-01T06:53:04;100362.31;;;22.80
71428;BMP280;59246;59.102;37.928;2022-08-01T06:55:30;100361.38;;;22.92
71428;BMP280;59246;59.102;37.928;2022-08-01T06:57:56;100365.44;;;22.82
71428;BMP280;59246;59.102;37.928;2022-08-01T07:00:23;100367.22;;;22.75
71428;BMP280;59246;59.102;37.928;2022-08-01T07:02:50;100364.31;;;22.83
71428;BMP280;59246;59.102;37.928;2022-08-01T07:05:17;100359.06;;;22.91
71428;BMP280;59246;59.102;37.928;2022-08-01T07:07:43;100364.66;;;23.01
71428;BMP280;59246;59.102;37.928;2022-08-01T07:10:09;100358.34;;;23.13
71428;BMP280;59246;59.102;37.928;2022-08-01T07:12:35;100359.50;;;23.35
71428;BMP280;59246;59.102;37.928;2022-08-01T07:15:10;100347.00;;;23.50
71428;BMP280;59246;59.102;37.928;2022-08-01T07:17:37;100354.91;;;23.59
71428;BMP280;59246;59.102;37.928;2022-08-01T07:20:04;100352.94;;;23.56
71428;BMP280;59246;59.102;37.928;2022-08-01T07:22:30;100363.97;;;23.70
71428;BMP280;59246;59.102;37.928;2022-08-01T07:24:55;100365.06;;;23.88
71428;BMP280;59246;59.102;37.928;2022-08-01T07:27:21;100361.78;;;24.02
71428;BMP280;59246;59.102;37.928;2022-08-01T07:29:47;100369.22;;;23.82
71428;BMP280;59246;59.102;37.928;2022-08-01T07:32:13;100367.50;;;23.70
71428;BMP280;59246;59.102;37.928;2022-08-01T07:34:38;100383.94;;;23.58
71428;BMP280;59246;59.102;37.928;2022-08-01T07:37:04;100356.66;;;23.28
71428;BMP280;59246;59.102;37.928;2022-08-01T07:39:30;100356.47;;;23.17
71428;BMP280;59246;59.102;37.928;2022-08-01T07:41:56;100362.66;;;23.18
71428;BMP280;59246;59.102;37.928;2022-08-01T07:44:23;100361.84;;;23.14
71428;BMP280;59246;59.102;37.928;2022-08-01T07:46:48;100365.59;;;23.09
71428;BMP280;59246;59.102;37.928;2022-08-01T07:49:14;100367.53;;;23.09
71428;BMP280;59246;59.102;37.928;2022-08-01T07:51:40;100367.66;;;23.16
71428;BMP280;59246;59.102;37.928;2022-08-01T07:54:05;100360.44;;;23.23
71428;BMP280;59246;59.102;37.928;2022-08-01T07:56:32;100361.22;;;23.24
71428;BMP280;59246;59.102;37.928;2022-08-01T07:58:58;100370.56;;;23.26
71428;BMP280;59246;59.102;37.928;2022-08-01T08:01:24;100360.75;;;23.18
71428;BMP280;59246;59.102;37.928;2022-08-01T08:03:50;100356.09;;;23.19
71428;BMP280;59246;59.102;37.928;2022-08-01T08:06:16;100362.88;;;23.28
71428;BMP280;59246;59.102;37.928;2022-08-01T08:08:41;100360.03;;;23.41
71428;BMP280;59246;59.102;37.928;2022-08-01T08:11:07;100352.78;;;23.48
71428;BMP280;59246;59.102;37.928;2022-08-01T08:13:33;100366.47;;;23.56
71428;BMP280;59246;59.102;37.928;2022-08-01T08:15:59;100367.00;;;23.65
71428;BMP280;59246;59.102;37.928;2022-08-01T08:18:25;100352.59;;;23.84
71428;BMP280;59246;59.102;37.928;2022-08-01T08:20:51;100350.75;;;23.88
71428;BMP280;59246;59.102;37.928;2022-08-01T08:23:17;100357.25;;;24.10
71428;BMP280;59246;59.102;37.928;2022-08-01T08:26:00;100354.50;;;24.33
71428;BMP280;59246;59.102;37.928;2022-08-01T08:28:27;100346.16;;;24.49
71428;BMP280;59246;59.102;37.928;2022-08-01T08:30:53;100354.47;;;24.63
71428;BMP280;59246;59.102;37.928;2022-08-01T08:33:21;100339.50;;;24.76
71428;BMP280;59246;59.102;37.928;2022-08-01T08:35:46;100340.13;;;24.96
71428;BMP280;59246;59.102;37.928;2022-08-01T08:38:12;100343.41;;;25.13
71428;BMP280;59246;59.102;37.928;2022-08-01T08:40:38;100346.63;;;25.26
71428;BMP280;59246;59.102;37.928;2022-08-01T08:43:05;100352.88;;;25.33
71428;BMP280;59246;59.102;37.928;2022-08-01T08:45:31;100342.47;;;25.39
71428;BMP280;59246;59.102;37.928;2022-08-01T08:47:57;100351.94;;;25.56
71428;BMP280;59246;59.102;37.928;2022-08-01T08:50:25;100337.69;;;25.73
71428;BMP280;59246;59.102;37.928;2022-08-01T08:52:54;100340.06;;;25.78
71428;BMP280;59246;59.102;37.928;2022-08-01T08:55:20;100340.81;;;25.75
71428;BMP280;59246;59.102;37.928;2022-08-01T08:57:47;100328.94;;;25.42
71428;BMP280;59246;59.102;37.928;2022-08-01T09:00:13;100330.75;;;25.28
71428;BMP280;59246;59.102;37.928;2022-08-01T09:02:54;100347.00;;;25.24
71428;BMP280;59246;59.102;37.928;2022-08-01T09:05:22;100334.97;;;25.25
71428;BMP280;59246;59.102;37.928;2022-08-01T09:07:52;100339.66;;;25.28
71428;BMP280;59246;59.102;37.928;2022-08-01T09:10:18;100332.34;;;25.32
71428;BMP280;59246;59.102;37.928;2022-08-01T09:13:06;100331.66;;;25.46
71428;BMP280;59246;59.102;37.928;2022-08-01T09:18:04;100350.38;;;25.55
71428;BMP280;59246;59.102;37.928;2022-08-01T09:20:30;100355.72;;;25.48
71428;BMP280;59246;59.102;37.928;2022-08-01T09:23:00;100340.44;;;25.29
71428;BMP280;59246;59.102;37.928;2022-08-01T09:25:26;100341.53;;;25.20
71428;BMP280;59246;59.102;37.928;2022-08-01T09:28:05;100335.38;;;25.27
71428;BMP280;59246;59.102;37.928;2022-08-01T09:30:38;100340.84;;;25.31
71428;BMP280;59246;59.102;37.928;2022-08-01T09:33:05;100341.16;;;25.22
71428;BMP280;59246;59.102;37.928;2022-08-01T09:35:33;100338.44;;;25.22
71428;BMP280;59246;59.102;37.928;2022-08-01T09:38:20;100329.19;;;25.30
71428;BMP280;59246;59.102;37.928;2022-08-01T09:41:00;100336.28;;;25.42
71428;BMP280;59246;59.102;37.928;2022-08-01T09:43:28;100329.38;;;25.52
71428;BMP280;59246;59.102;37.928;2022-08-01T09:45:55;100332.09;;;25.52
71428;BMP280;59246;59.102;37.928;2022-08-01T09:48:21;100326.25;;;25.50
71428;BMP280;59246;59.102;37.928;2022-08-01T09:50:51;100329.25;;;25.37
71428;BMP280;59246;59.102;37.928;2022-08-01T09:53:18;100326.78;;;25.21
71428;BMP280;59246;59.102;37.928;2022-08-01T09:55:44;100334.50;;;25.16
71428;BMP280;59246;59.102;37.928;2022-08-01T09:58:11;100327.41;;;25.04
71428;BMP280;59246;59.102;37.928;2022-08-01T10:00:37;100328.91;;;25.01
71428;BMP280;59246;59.102;37.928;2022-08-01T10:03:21;100315.81;;;25.11
71428;BMP280;59246;59.102;37.928;2022-08-01T10:05:48;100317.91;;;25.25
71428;BMP280;59246;59.102;37.928;2022-08-01T10:08:14;100320.78;;;25.42
71428;BMP280;59246;59.102;37.928;2022-08-01T10:10:40;100323.19;;;25.55
71428;BMP280;59246;59.102;37.928;2022-08-01T10:13:06;100326.47;;;25.82
71428;BMP280;59246;59.102;37.928;2022-08-01T10:15:33;100326.28;;;26.16
71428;BMP280;59246;59.102;37.928;2022-08-01T10:18:02;100328.78;;;26.53
71428;BMP280;59246;59.102;37.928;2022-08-01T10:20:33;100324.22;;;26.89
71428;BMP280;59246;59.102;37.928;2022-08-01T10:23:03;100320.72;;;27.21
71428;BMP280;59246;59.102;37.928;2022-08-01T10:25:34;100327.69;;;27.54
71428;BMP280;59246;59.102;37.928;2022-08-01T10:28:01;100315.56;;;27.87
71428;BMP280;59246;59.102;37.928;2022-08-01T10:30:31;100330.97;;;28.41
71428;BMP280;59246;59.102;37.928;2022-08-01T10:32:57;100313.13;;;28.81
71428;BMP280;59246;59.102;37.928;2022-08-01T10:35:24;100313.56;;;29.24
71428;BMP280;59246;59.102;37.928;2022-08-01T10:37:50;100318.34;;;29.89
71428;BMP280;59246;59.102;37.928;2022-08-01T10:40:22;100309.16;;;30.33
71428;BMP280;59246;59.102;37.928;2022-08-01T10:42:47;100309.72;;;30.75
71428;BMP280;59246;59.102;37.928;2022-08-01T10:45:15;100304.09;;;31.06
71428;BMP280;59246;59.102;37.928;2022-08-01T10:50:35;100317.69;;;30.90
71428;BMP280;59246;59.102;37.928;2022-08-01T10:53:20;100321.66;;;30.61
71428;BMP280;59246;59.102;37.928;2022-08-01T10:58:29;100320.78;;;29.45
71428;BMP280;59246;59.102;37.928;2022-08-01T11:01:18;100325.50;;;28.96
71428;BMP280;59246;59.102;37.928;2022-08-01T11:03:57;100321.44;;;28.60
71428;BMP280;59246;59.102;37.928;2022-08-01T11:06:42;100320.75;;;28.45
71428;BMP280;59246;59.102;37.928;2022-08-01T11:15:15;100326.06;;;27.85
71428;BMP280;59246;59.102;37.928;2022-08-01T11:17:45;100326.06;;;27.85
71428;BMP280;59246;59.102;37.928;2022-08-01T11:20:19;100322.97;;;27.87
71428;BMP280;59246;59.102;37.928;2022-08-01T11:26:05;100323.94;;;28.40
71428;BMP280;59246;59.102;37.928;2022-08-01T11:30:43;100321.75;;;29.28
71428;BMP280;59246;59.102;37.928;2022-08-01T11:33:10;100321.53;;;29.84
71428;BMP280;59246;59.102;37.928;2022-08-01T11:35:36;100328.63;;;30.39
71428;BMP280;59246;59.102;37.928;2022-08-01T11:38:24;100320.34;;;30.70
71428;BMP280;59246;59.102;37.928;2022-08-01T11:41:11;100321.28;;;30.59
71428;BMP280;59246;59.102;37.928;2022-08-01T11:44:10;100318.63;;;30.79
71428;BMP280;59246;59.102;37.928;2022-08-01T11:46:54;100319.31;;;30.87
71428;BMP280;59246;59.102;37.928;2022-08-01T11:52:14;100318.03;;;31.15
71428;BMP280;59246;59.102;37.928;2022-08-01T11:54:52;100320.59;;;32.02
71428;BMP280;59246;59.102;37.928;2022-08-01T11:57:26;100304.44;;;33.31
71428;BMP280;59246;59.102;37.928;2022-08-01T11:59:56;100314.19;;;33.74
71428;BMP280;59246;59.102;37.928;2022-08-01T12:02:25;100314.00;;;33.81
71428;BMP280;59246;59.102;37.928;2022-08-01T12:05:08;100318.16;;;33.48
71428;BMP280;59246;59.102;37.928;2022-08-01T12:07:36;100297.13;;;33.66
71428;BMP280;59246;59.102;37.928;2022-08-01T12:10:10;100302.91;;;33.30
71428;BMP280;59246;59.102;37.928;2022-08-01T12:12:36;100295.84;;;33.29
71428;BMP280;59246;59.102;37.928;2022-08-01T12:15:07;100303.03;;;33.10
71428;BMP280;59246;59.102;37.928;2022-08-01T12:17:40;100294.41;;;33.25
71428;BMP280;59246;59.102;37.928;2022-08-01T12:20:09;100286.66;;;34.12
71428;BMP280;59246;59.102;37.928;2022-08-01T12:22:36;100290.41;;;34.66
71428;BMP280;59246;59.102;37.928;2022-08-01T12:27:31;100298.69;;;34.88
71428;BMP280;59246;59.102;37.928;2022-08-01T12:29:58;100300.72;;;34.27
71428;BMP280;59246;59.102;37.928;2022-08-01T12:32:29;100292.41;;;33.92
71428;BMP280;59246;59.102;37.928;2022-08-01T12:35:00;100290.22;;;33.75
71428;BMP280;59246;59.102;37.928;2022-08-01T12:37:26;100297.47;;;33.94
71428;BMP280;59246;59.102;37.928;2022-08-01T12:39:52;100287.47;;;35.04
71428;BMP280;59246;59.102;37.928;2022-08-01T12:42:18;100288.19;;;35.89
71428;BMP280;59246;59.102;37.928;2022-08-01T12:44:48;100291.16;;;36.77
71428;BMP280;59246;59.102;37.928;2022-08-01T12:47:17;100286.06;;;37.03
71428;BMP280;59246;59.102;37.928;2022-08-01T12:49:44;100288.19;;;37.08
71428;BMP280;59246;59.102;37.928;2022-08-01T12:52:11;100284.22;;;37.10
71428;BMP280;59246;59.102;37.928;2022-08-01T12:57:27;100292.56;;;37.33
71428;BMP280;59246;59.102;37.928;2022-08-01T12:59:53;100295.00;;;37.08
71428;BMP280;59246;59.102;37.928;2022-08-01T13:02:19;100294.72;;;36.78
71428;BMP280;59246;59.102;37.928;2022-08-01T13:04:51;100288.22;;;36.07
71428;BMP280;59246;59.102;37.928;2022-08-01T13:07:17;100292.69;;;35.33
71428;BMP280;59246;59.102;37.928;2022-08-01T13:09:50;100289.88;;;35.15
71428;BMP280;59246;59.102;37.928;2022-08-01T13:12:16;100287.13;;;36.05
71428;BMP280;59246;59.102;37.928;2022-08-01T13:14:42;100293.03;;;38.52
71428;BMP280;59246;59.102;37.928;2022-08-01T13:17:08;100287.31;;;39.15
71428;BMP280;59246;59.102;37.928;2022-08-01T13:19:44;100277.63;;;38.95
71428;BMP280;59246;59.102;37.928;2022-08-01T13:22:12;100283.94;;;39.25
71428;BMP280;59246;59.102;37.928;2022-08-01T13:24:38;100287.88;;;38.74
71428;BMP280;59246;59.102;37.928;2022-08-01T13:27:04;100277.50;;;37.68
71428;BMP280;59246;59.102;37.928;2022-08-01T13:29:35;100281.16;;;37.98
71428;BMP280;59246;59.102;37.928;2022-08-01T13:32:18;100275.75;;;38.18
71428;BMP280;59246;59.102;37.928;2022-08-01T13:34:44;100278.97;;;37.78
71428;BMP280;59246;59.102;37.928;2022-08-01T13:37:10;100278.38;;;37.08
71428;BMP280;59246;59.102;37.928;2022-08-01T13:39:36;100279.66;;;36.42
71428;BMP280;59246;59.102;37.928;2022-08-01T13:42:18;100275.94;;;35.59
71428;BMP280;59246;59.102;37.928;2022-08-01T13:44:44;100285.91;;;34.59
71428;BMP280;59246;59.102;37.928;2022-08-01T13:47:11;100279.94;;;34.01
71428;BMP280;59246;59.102;37.928;2022-08-01T13:49:36;100276.84;;;33.60
71428;BMP280;59246;59.102;37.928;2022-08-01T13:52:03;100274.28;;;33.28
71428;BMP280;59246;59.102;37.928;2022-08-01T13:54:31;100272.13;;;33.06
71428;BMP280;59246;59.102;37.928;2022-08-01T13:56:57;100275.88;;;32.83
71428;BMP280;59246;59.102;37.928;2022-08-01T13:59:23;100266.94;;;32.50
71428;BMP280;59246;59.102;37.928;2022-08-01T14:01:49;100279.41;;;32.02
71428;BMP280;59246;59.102;37.928;2022-08-01T14:04:15;100275.91;;;31.65
71428;BMP280;59246;59.102;37.928;2022-08-01T14:06:41;100271.59;;;31.44
71428;BMP280;59246;59.102;37.928;2022-08-01T14:09:07;100270.88;;;31.24
71428;BMP280;59246;59.102;37.928;2022-08-01T14:11:34;100261.53;;;30.98
71428;BMP280;59246;59.102;37.928;2022-08-01T14:14:00;100260.72;;;30.77
71428;BMP280;59246;59.102;37.928;2022-08-01T14:16:26;100279.66;;;30.68
71428;BMP280;59246;59.102;37.928;2022-08-01T14:18:51;100256.06;;;30.51
71428;BMP280;59246;59.102;37.928;2022-08-01T14:21:17;100266.09;;;30.34
71428;BMP280;59246;59.102;37.928;2022-08-01T14:23:44;100267.88;;;30.21
71428;BMP280;59246;59.102;37.928;2022-08-01T14:26:10;100263.94;;;29.94